Time;durP1;ratioP1;P1;durP2;ratioP2;P2;SDS_P1;SDS_P2;PMS_P1;PMS_P2;Temp;Humidity;BMP_temperature;BMP_pressure;BME280_temperature;BME280_humidity;BME280_pressure;Samples;Min_cycle;Max_cycle;Signal;HPM_P1;HPM_P2
2022/03/07 00:01:25;;;;;;;8.18;7.68;;;;;;;-0.22;92.83;101032.72;5029904;28;20071;-65
2022/03/07 00:03:52;;;;;;;7.63;7.22;;;;;;;0.20;92.48;101052.69;5026740;28;20026;-65
2022/03/07 00:06:18;;;;;;;7.40;7.00;;;;;;;0.29;92.39;101053.88;5022910;28;20025;-66
2022/03/07 00:08:43;;;;;;;7.60;7.20;;;;;;;0.34;92.41;101061.44;5021372;28;20484;-66
2022/03/07 00:11:08;;;;;;;7.80;7.40;;;;;;;0.31;92.28;101046.81;5029077;28;20025;-66
2022/03/07 00:13:35;;;;;;;7.70;7.30;;;;;;;0.36;92.45;101055.16;5018621;28;20036;-66
2022/03/07 00:16:02;;;;;;;7.32;6.93;;;;;;;0.34;92.73;101043.16;5021032;28;20074;-66
2022/03/07 00:18:28;;;;;;;7.43;7.03;;;;;;;0.27;92.86;101045.31;5033705;28;20029;-66
2022/03/07 00:20:55;;;;;;;7.75;7.35;;;;;;;0.24;92.60;101030.69;5031665;28;20079;-66
2022/03/07 00:23:20;;;;;;;7.93;7.45;;;;;;;0.21;92.57;101036.09;5033329;28;20034;-66
2022/03/07 00:25:46;;;;;;;8.00;7.50;;;;;;;0.04;92.70;101036.31;5034553;28;20395;-66
2022/03/07 00:28:16;;;;;;;8.02;7.55;;;;;;;0.15;91.31;101049.53;5017153;28;20396;-66
2022/03/07 00:30:41;;;;;;;8.02;7.53;;;;;;;0.22;92.41;101029.09;5026146;28;20026;-66
2022/03/07 00:33:07;;;;;;;7.63;7.22;;;;;;;0.25;91.38;101027.16;5029998;28;20100;-66
2022/03/07 00:35:32;;;;;;;8.25;7.75;;;;;;;0.25;91.66;101021.09;5033331;28;20427;-66
2022/03/07 00:37:58;;;;;;;8.60;8.07;;;;;;;0.30;91.89;101026.03;5028342;28;20057;-65
2022/03/07 00:40:23;;;;;;;7.13;6.82;;;;;;;0.26;92.38;101023.59;5033281;28;20141;-65
2022/03/07 00:42:49;;;;;;;7.35;6.95;;;;;;;0.19;92.56;101018.88;5033419;28;20476;-66
2022/03/07 00:45:14;;;;;;;7.28;6.88;;;;;;;0.32;92.56;101026.78;5032131;28;20437;-66
2022/03/07 00:47:40;;;;;;;8.48;7.97;;;;;;;0.30;93.41;101023.44;5033497;28;20667;-65
2022/03/07 00:50:06;;;;;;;7.78;7.38;;;;;;;0.27;93.13;101014.00;5033122;28;20476;-66
2022/03/07 00:52:31;;;;;;;7.25;6.90;;;;;;;0.24;93.09;101012.44;5025960;28;20029;-67
2022/03/07 00:54:57;;;;;;;7.30;6.93;;;;;;;0.28;93.26;101002.63;5017881;28;20449;-66
2022/03/07 00:57:22;;;;;;;7.55;7.15;;;;;;;0.34;92.89;101001.41;5038797;28;20022;-65
2022/03/07 00:59:48;;;;;;;7.38;6.97;;;;;;;0.28;93.26;100986.97;5029318;28;20110;-66
2022/03/07 01:02:13;;;;;;;7.57;7.18;;;;;;;0.20;92.39;100971.81;5018531;28;20053;-66
2022/03/07 01:04:39;;;;;;;7.57;7.18;;;;;;;0.27;92.66;100987.91;5020080;28;20021;-66
2022/03/07 01:07:04;;;;;;;7.75;7.35;;;;;;;0.32;92.94;100979.81;5029874;28;20499;-66
2022/03/07 01:09:30;;;;;;;8.13;7.63;;;;;;;0.31;92.89;100978.13;5032700;28;20121;-66
2022/03/07 01:11:56;;;;;;;7.60;7.20;;;;;;;0.20;93.50;100968.38;5033919;28;20333;-65
2022/03/07 01:14:21;;;;;;;7.18;6.85;;;;;;;0.20;93.37;100982.25;5031503;28;20076;-66
2022/03/07 01:16:47;;;;;;;7.53;7.13;;;;;;;0.29;94.00;100978.22;5020647;28;20033;-66
2022/03/07 01:19:13;;;;;;;7.60;7.20;;;;;;;0.25;93.38;100969.75;5033391;28;20447;-66
2022/03/07 01:21:39;;;;;;;7.93;7.47;;;;;;;0.24;92.81;100962.88;5033345;28;20057;-65
2022/03/07 01:24:06;;;;;;;8.02;7.57;;;;;;;0.22;94.07;100962.13;5033502;28;20067;-67
2022/03/07 01:26:32;;;;;;;7.55;7.15;;;;;;;0.24;94.13;100967.25;5033414;28;20060;-66
2022/03/07 01:28:57;;;;;;;7.38;7.03;;;;;;;0.20;94.05;100961.38;5020997;28;20072;-66
2022/03/07 01:31:23;;;;;;;7.32;6.93;;;;;;;0.24;94.23;100962.88;5026111;28;20152;-66
2022/03/07 01:33:48;;;;;;;7.85;7.45;;;;;;;0.19;95.17;100959.69;5031878;28;20398;-66
2022/03/07 01:36:14;;;;;;;8.23;7.72;;;;;;;0.19;94.39;100957.09;5031623;28;20109;-66
2022/03/07 01:38:39;;;;;;;8.32;7.82;;;;;;;0.22;94.31;100956.91;5022481;28;20037;-66
2022/03/07 01:41:04;;;;;;;7.38;6.97;;;;;;;0.23;94.38;100950.75;5033065;28;20031;-67
2022/03/07 01:43:30;;;;;;;7.72;7.32;;;;;;;0.23;94.27;100944.72;5019727;28;20116;-66
2022/03/07 01:45:56;;;;;;;8.82;8.30;;;;;;;0.21;93.89;100950.00;5028482;28;20029;-67
2022/03/07 01:48:21;;;;;;;9.00;8.43;;;;;;;0.18;94.24;100936.31;5020647;28;20415;-66
2022/03/07 01:50:48;;;;;;;8.45;7.95;;;;;;;0.22;94.00;100946.47;5015682;28;20034;-66
2022/03/07 01:53:13;;;;;;;7.50;7.10;;;;;;;0.21;94.25;100947.38;5032023;28;20032;-66
2022/03/07 01:55:39;;;;;;;8.10;7.60;;;;;;;0.23;94.14;100939.50;5032492;28;20042;-66
2022/03/07 01:58:05;;;;;;;8.23;7.72;;;;;;;0.18;94.81;100939.78;5028411;28;20044;-66
2022/03/07 02:00:31;;;;;;;8.98;8.38;;;;;;;0.18;94.77;100937.16;5015232;28;20060;-67
2022/03/07 02:02:56;;;;;;;8.45;7.95;;;;;;;0.18;94.45;100937.16;5030247;28;20437;-65
2022/03/07 02:05:22;;;;;;;8.57;8.07;;;;;;;0.20;94.23;100937.06;5031611;28;20511;-67
2022/03/07 02:07:47;;;;;;;7.85;7.45;;;;;;;0.20;95.22;100945.72;5031415;28;20029;-65
2022/03/07 02:10:13;;;;;;;7.93;7.47;;;;;;;0.07;94.75;100931.78;5032491;28;20412;-66
2022/03/07 02:12:39;;;;;;;8.10;7.60;;;;;;;0.12;94.73;100936.72;5031302;28;20402;-67
2022/03/07 02:15:07;;;;;;;8.55;8.05;;;;;;;0.17;94.33;100938.09;5032311;28;20036;-66
2022/03/07 02:17:33;;;;;;;8.25;7.75;;;;;;;0.11;94.48;100924.59;5032262;28;20083;-66
2022/03/07 02:19:59;;;;;;;7.15;6.82;;;;;;;0.12;94.21;100932.31;5031204;28;20551;-66
2022/03/07 02:22:24;;;;;;;8.48;7.97;;;;;;;0.11;94.29;100935.03;5027438;28;20151;-66
2022/03/07 02:24:50;;;;;;;8.30;7.80;;;;;;;0.13;94.01;100934.00;5032479;28;20026;-66
2022/03/07 02:27:18;;;;;;;8.27;7.78;;;;;;;0.11;94.00;100929.81;5032445;28;20022;-66
2022/03/07 02:29:45;;;;;;;7.75;7.32;;;;;;;0.14;93.66;100933.06;5032409;28;20022;-67
2022/03/07 02:32:10;;;;;;;8.10;7.60;;;;;;;0.09;94.38;100926.50;5026908;28;20025;-65
2022/03/07 02:34:36;;;;;;;7.50;7.10;;;;;;;0.09;94.50;100918.66;5017459;28;20572;-65
2022/03/07 02:37:03;;;;;;;7.57;7.18;;;;;;;0.20;94.73;100937.88;5029876;28;20022;-65
2022/03/07 02:39:29;;;;;;;7.78;7.38;;;;;;;0.16;94.73;100927.78;5031248;28;20057;-66
2022/03/07 02:41:55;;;;;;;7.32;6.93;;;;;;;0.22;94.80;100929.97;5017520;28;20102;-67
2022/03/07 02:44:22;;;;;;;7.47;7.07;;;;;;;0.18;95.03;100926.72;5019480;28;20021;-65
2022/03/07 02:46:47;;;;;;;7.28;6.88;;;;;;;0.22;94.17;100935.19;5030820;28;20132;-67
2022/03/07 02:49:13;;;;;;;7.38;6.97;;;;;;;0.24;94.71;100917.69;5031349;28;20094;-67
2022/03/07 02:51:38;;;;;;;8.13;7.63;;;;;;;0.25;95.06;100928.00;5015363;28;20053;-67
2022/03/07 02:54:04;;;;;;;8.00;7.55;;;;;;;0.24;95.38;100926.34;5029451;28;20033;-65
2022/03/07 02:56:30;;;;;;;7.82;7.43;;;;;;;0.25;95.32;100930.63;5032620;28;20035;-65
2022/03/07 02:58:55;;;;;;;7.45;7.05;;;;;;;0.06;97.72;100931.88;5029673;28;20057;-66
2022/03/07 03:01:21;;;;;;;7.40;7.00;;;;;;;0.07;97.57;100926.56;5031028;28;20029;-66
2022/03/07 03:03:46;;;;;;;7.55;7.15;;;;;;;0.08;97.50;100917.00;5026553;28;20358;-65
2022/03/07 03:06:12;;;;;;;7.47;7.07;;;;;;;0.05;98.06;100922.38;5021566;28;20124;-66
2022/03/07 03:08:37;;;;;;;8.10;7.60;;;;;;;0.18;97.71;100920.66;5021974;28;20040;-66
2022/03/07 03:11:03;;;;;;;7.45;7.05;;;;;;;0.17;96.71;100917.22;5030620;28;20029;-66
2022/03/07 03:13:28;;;;;;;7.20;6.85;;;;;;;0.15;96.71;100926.94;5030661;28;20029;-67
2022/03/07 03:15:55;;;;;;;7.80;7.38;;;;;;;0.11;97.43;100920.22;5024900;28;20463;-66
2022/03/07 03:18:22;;;;;;;9.27;8.68;;;;;;;0.10;97.03;100918.56;5016600;28;20032;-66
2022/03/07 03:20:51;;;;;;;7.60;7.20;;;;;;;0.09;96.42;100911.66;5028303;28;20021;-67
2022/03/07 03:23:18;;;;;;;7.75;7.35;;;;;;;0.15;96.31;100910.44;5014197;28;20488;-67
2022/03/07 03:25:43;;;;;;;8.15;7.65;;;;;;;0.11;95.68;100916.78;5022685;28;20026;-65
2022/03/07 03:28:09;;;;;;;7.70;7.30;;;;;;;-0.01;95.50;100903.56;5013716;28;20025;-66
2022/03/07 03:30:35;;;;;;;8.75;8.15;;;;;;;0.06;95.10;100914.47;5012709;28;20036;-65
2022/03/07 03:33:00;;;;;;;9.17;8.60;;;;;;;0.01;94.85;100903.50;4985601;28;1234347;-67
2022/03/07 03:35:26;;;;;;;7.97;7.50;;;;;;;-0.04;95.19;100908.16;5029997;28;20068;-66
2022/03/07 03:37:52;;;;;;;7.88;7.47;;;;;;;0.01;95.21;100902.66;4996221;28;20034;-66
2022/03/07 03:40:18;;;;;;;8.05;7.57;;;;;;;0.04;95.17;100902.47;5028433;28;20690;-66
2022/03/07 03:42:44;;;;;;;7.85;7.40;;;;;;;-0.06;94.48;100903.06;5029122;28;20550;-67
2022/03/07 03:45:10;;;;;;;7.97;7.53;;;;;;;-0.11;94.90;100899.06;5030739;28;20025;-67
2022/03/07 03:47:37;;;;;;;7.90;7.45;;;;;;;0.02;94.73;100907.78;5030041;28;20025;-66
2022/03/07 03:50:05;;;;;;;7.15;6.80;;;;;;;0.05;94.03;100904.13;5031262;28;20025;-66
2022/03/07 03:52:31;;;;;;;7.85;7.45;;;;;;;-0.10;94.38;100895.50;5030208;28;20037;-66
2022/03/07 03:54:56;;;;;;;8.65;8.15;;;;;;;-0.06;94.61;100894.38;5022474;28;20485;-66
2022/03/07 03:57:23;;;;;;;7.55;7.15;;;;;;;-0.02;94.57;100901.06;5029026;28;20029;-66
2022/03/07 03:59:48;;;;;;;7.82;7.43;;;;;;;0.06;94.51;100895.38;5030320;28;20018;-66
2022/03/07 04:02:14;;;;;;;7.53;7.13;;;;;;;0.10;94.46;100891.63;5030403;28;20029;-65
2022/03/07 04:04:40;;;;;;;7.85;7.40;;;;;;;0.07;95.05;100895.25;5026861;28;20602;-66
2022/03/07 04:07:06;;;;;;;8.27;7.78;;;;;;;0.00;96.10;100891.41;5025530;28;20032;-67
2022/03/07 04:09:32;;;;;;;7.40;7.03;;;;;;;-0.02;96.83;100890.63;5028942;28;20025;-65
2022/03/07 04:11:57;;;;;;;7.85;7.45;;;;;;;-0.05;97.49;100885.63;5023888;28;20084;-65
2022/03/07 04:14:23;;;;;;;8.32;7.82;;;;;;;-0.02;97.74;100891.47;5029405;28;20088;-66
2022/03/07 04:16:49;;;;;;;7.75;7.35;;;;;;;-0.04;98.30;100884.69;5029952;28;20057;-66
2022/03/07 04:19:15;;;;;;;7.60;7.20;;;;;;;0.03;97.73;100885.13;5013578;28;20049;-66
2022/03/07 04:21:41;;;;;;;8.32;7.82;;;;;;;0.05;96.76;100878.88;5015107;28;20032;-66
2022/03/07 04:24:09;;;;;;;7.75;7.35;;;;;;;0.02;96.83;100889.53;5032436;28;20046;-65
2022/03/07 04:26:34;;;;;;;8.25;7.75;;;;;;;-0.05;96.61;100877.81;5030837;28;20030;-66
2022/03/07 04:29:01;;;;;;;7.82;7.43;;;;;;;0.02;95.57;100879.09;5016486;28;20041;-66
2022/03/07 04:31:26;;;;;;;7.35;6.95;;;;;;;-0.06;96.09;100865.72;5021869;28;20072;-66
2022/03/07 04:33:52;;;;;;;8.02;7.60;;;;;;;0.05;96.46;100884.09;5025631;28;20079;-67
2022/03/07 04:36:19;;;;;;;7.95;7.47;;;;;;;0.05;95.89;100884.09;5027955;28;20041;-67
2022/03/07 04:38:45;;;;;;;7.50;7.10;;;;;;;0.01;96.52;100887.84;5015013;28;20401;-65
2022/03/07 04:41:10;;;;;;;7.82;7.43;;;;;;;0.04;96.44;100885.03;5030419;28;20017;-66
2022/03/07 04:43:36;;;;;;;7.65;7.25;;;;;;;-0.03;96.72;100884.59;5029410;28;20089;-66
2022/03/07 04:46:01;;;;;;;7.65;7.25;;;;;;;-0.21;96.99;100853.66;5043590;28;20018;-67
2022/03/07 04:48:27;;;;;;;7.65;7.25;;;;;;;-0.04;97.21;100871.66;5030477;28;20030;-67
2022/03/07 04:50:52;;;;;;;7.88;7.47;;;;;;;0.01;96.39;100877.41;5029466;28;20087;-67
2022/03/07 04:53:18;;;;;;;7.60;7.20;;;;;;;0.02;95.33;100870.44;5030465;28;20508;-66
2022/03/07 04:55:43;;;;;;;8.10;7.65;;;;;;;-0.02;95.18;100877.59;5029817;28;20057;-66
2022/03/07 04:58:09;;;;;;;8.48;7.97;;;;;;;0.00;95.82;100870.53;5029091;28;20040;-66
2022/03/07 05:00:35;;;;;;;8.82;8.25;;;;;;;-0.04;95.99;100871.66;5033869;28;20026;-66
2022/03/07 05:03:00;;;;;;;8.93;8.32;;;;;;;-0.09;94.67;100869.31;5029654;28;20033;-67
2022/03/07 05:05:26;;;;;;;9.82;9.13;;;;;;;-0.02;92.99;100868.00;5016135;28;20396;-66
2022/03/07 05:07:52;;;;;;;7.65;7.25;;;;;;;-0.05;93.08;100869.97;5026026;28;20025;-65
2022/03/07 05:10:19;;;;;;;7.30;6.93;;;;;;;0.03;93.43;100865.09;5017499;28;20105;-66
2022/03/07 05:12:45;;;;;;;7.82;7.43;;;;;;;0.06;92.60;100866.66;5028825;28;20091;-67
2022/03/07 05:15:11;;;;;;;8.07;7.57;;;;;;;0.13;92.82;100860.13;5020792;28;20030;-66
2022/03/07 05:17:51;;;;;;;8.27;7.78;;;;;;;0.10;94.07;100860.34;5029363;28;20029;-66
2022/03/07 05:20:17;;;;;;;7.97;7.57;;;;;;;0.04;94.30;100858.94;5020949;28;20026;-67
2022/03/07 05:22:44;;;;;;;8.02;7.63;;;;;;;0.09;93.97;100853.44;5018612;28;20120;-65
2022/03/07 05:25:11;;;;;;;9.15;8.55;;;;;;;0.11;93.43;100851.56;5039223;28;20029;-66
2022/03/07 05:27:38;;;;;;;8.77;8.18;;;;;;;0.11;92.89;100857.63;5032219;28;20029;-66
2022/03/07 05:30:05;;;;;;;7.78;7.38;;;;;;;0.12;93.49;100843.63;5030767;28;20609;-67
2022/03/07 05:32:31;;;;;;;8.20;7.72;;;;;;;0.23;93.02;100851.63;5032162;28;20117;-66
2022/03/07 05:34:56;;;;;;;8.15;7.68;;;;;;;0.17;91.79;100838.97;5027407;28;20128;-67
2022/03/07 05:37:22;;;;;;;8.38;7.88;;;;;;;0.22;92.19;100852.56;5032143;28;20029;-66
2022/03/07 05:39:47;;;;;;;8.43;7.93;;;;;;;0.18;91.80;100847.63;5032199;28;20072;-67
2022/03/07 05:42:13;;;;;;;7.90;7.45;;;;;;;0.20;91.23;100845.75;5031802;28;20028;-66
2022/03/07 05:44:39;;;;;;;7.80;7.40;;;;;;;0.19;90.60;100841.47;5031904;28;20033;-64
2022/03/07 05:47:04;;;;;;;8.70;8.15;;;;;;;0.33;89.75;100851.00;5031566;28;20029;-66
2022/03/07 05:49:30;;;;;;;8.40;7.90;;;;;;;0.25;89.41;100849.72;5032654;28;20036;-65
2022/03/07 05:51:55;;;;;;;8.02;7.57;;;;;;;0.38;88.63;100851.53;5015096;28;20477;-67
2022/03/07 05:54:21;;;;;;;9.15;8.55;;;;;;;0.44;88.46;100856.34;5015342;28;20477;-66
2022/03/07 05:56:46;;;;;;;7.68;7.28;;;;;;;0.52;87.43;100852.31;5028316;28;20052;-67
2022/03/07 05:59:12;;;;;;;7.63;7.22;;;;;;;0.45;87.84;100858.88;5027084;28;20030;-67
2022/03/07 06:01:37;;;;;;;7.47;7.07;;;;;;;0.30;89.24;100849.44;5017655;28;20034;-66
2022/03/07 06:04:03;;;;;;;7.88;7.47;;;;;;;0.37;89.41;100858.53;5022378;28;20075;-66
2022/03/07 06:06:28;;;;;;;10.48;9.70;;;;;;;0.41;89.09;100853.94;5030396;28;20021;-67
2022/03/07 06:08:54;;;;;;;11.68;10.77;;;;;;;0.30;89.45;100859.88;5032137;28;20041;-66
2022/03/07 06:11:19;;;;;;;8.77;8.18;;;;;;;0.30;90.22;100856.44;5032158;28;20036;-66
2022/03/07 06:13:46;;;;;;;8.98;8.38;;;;;;;0.35;90.62;100852.56;5030119;28;20044;-66
2022/03/07 06:16:12;;;;;;;8.32;7.82;;;;;;;0.40;89.57;100854.88;5032280;28;20105;-65
2022/03/07 06:18:38;;;;;;;8.18;7.70;;;;;;;0.46;89.32;100855.31;5032298;28;20032;-65
2022/03/07 06:21:05;;;;;;;7.72;7.32;;;;;;;0.36;89.47;100848.19;5029839;28;20404;-67
2022/03/07 06:23:30;;;;;;;8.25;7.75;;;;;;;0.55;89.53;100856.47;5031308;28;20029;-66
2022/03/07 06:25:56;;;;;;;7.72;7.32;;;;;;;0.52;89.25;100854.91;5030964;28;20391;-66
2022/03/07 06:28:21;;;;;;;8.30;7.80;;;;;;;0.49;90.35;100851.66;5031135;28;20035;-66
2022/03/07 06:30:47;;;;;;;8.30;7.80;;;;;;;0.46;90.03;100844.03;5033475;28;20436;-66
2022/03/07 06:33:14;;;;;;;9.27;8.68;;;;;;;0.57;89.85;100848.53;5030233;28;20055;-66
2022/03/07 06:35:39;;;;;;;8.13;7.63;;;;;;;0.49;89.40;100842.03;5031864;28;20056;-67
2022/03/07 06:38:05;;;;;;;9.45;8.85;;;;;;;0.68;89.24;100848.66;5031970;28;20068;-67
2022/03/07 06:40:31;;;;;;;8.80;8.25;;;;;;;0.54;90.00;100841.75;5014504;28;20034;-65
2022/03/07 06:42:57;;;;;;;7.55;7.15;;;;;;;0.58;90.09;100845.81;5030877;28;20029;-67
2022/03/07 06:45:22;;;;;;;8.43;7.93;;;;;;;0.74;88.78;100846.47;5032834;28;20018;-67
2022/03/07 06:47:48;;;;;;;8.32;7.82;;;;;;;0.69;88.83;100853.78;5018443;28;20493;-65
2022/03/07 06:50:14;;;;;;;8.27;7.78;;;;;;;0.68;88.79;100849.50;5028020;28;20026;-66
2022/03/07 06:52:40;;;;;;;7.95;7.53;;;;;;;0.85;87.13;100850.97;5031353;28;20029;-67
2022/03/07 06:55:06;;;;;;;7.43;7.03;;;;;;;0.81;85.73;100837.28;5030597;28;20032;-66
2022/03/07 06:57:32;;;;;;;8.50;8.00;;;;;;;0.97;85.24;100826.63;5021157;28;20037;-66
2022/03/07 06:59:57;;;;;;;8.88;8.27;;;;;;;0.81;85.56;100826.84;5021712;28;20040;-67
2022/03/07 07:02:22;;;;;;;7.38;6.97;;;;;;;1.01;84.70;100835.91;5029091;28;20052;-65
2022/03/07 07:04:48;;;;;;;7.75;7.35;;;;;;;1.02;85.64;100828.91;5030219;28;20060;-65
2022/03/07 07:07:15;;;;;;;7.20;6.80;;;;;;;0.99;85.65;100827.34;5031425;28;20499;-67
2022/03/07 07:09:41;;;;;;;9.32;8.70;;;;;;;1.18;83.68;100824.31;5030277;28;20419;-67
2022/03/07 07:12:08;;;;;;;7.90;7.50;;;;;;;1.38;82.29;100818.47;5030414;28;20022;-67
2022/03/07 07:14:33;;;;;;;7.88;7.47;;;;;;;1.43;80.41;100825.19;5030251;28;20052;-66
2022/03/07 07:16:59;;;;;;;8.55;8.05;;;;;;;1.59;80.37;100825.75;5031587;28;20480;-67
2022/03/07 07:19:24;;;;;;;7.25;6.85;;;;;;;1.56;79.52;100816.34;5030008;28;20025;-67
2022/03/07 07:21:50;;;;;;;8.57;8.07;;;;;;;1.55;80.35;100821.69;5031699;28;20043;-66
2022/03/07 07:24:15;;;;;;;7.60;7.20;;;;;;;1.52;81.21;100822.72;5030822;28;20056;-67
2022/03/07 07:26:41;;;;;;;7.28;6.88;;;;;;;1.73;79.72;100822.97;5014156;28;20030;-67
2022/03/07 07:29:07;;;;;;;7.18;6.78;;;;;;;1.85;78.87;100816.03;5028849;28;20511;-66
2022/03/07 07:31:32;;;;;;;9.68;9.00;;;;;;;1.83;78.73;100804.84;5015428;28;20045;-67
2022/03/07 07:33:58;;;;;;;7.65;7.25;;;;;;;1.78;78.55;100807.81;5014706;28;20052;-66
2022/03/07 07:36:23;;;;;;;7.55;7.15;;;;;;;1.82;77.65;100801.38;5025960;28;20063;-65
2022/03/07 07:38:49;;;;;;;7.40;7.00;;;;;;;1.92;77.54;100801.56;5025892;28;20036;-67
2022/03/07 07:41:14;;;;;;;8.73;8.20;;;;;;;1.90;78.54;100803.44;5029738;28;20480;-67
2022/03/07 07:43:40;;;;;;;9.45;8.85;;;;;;;1.81;77.90;100804.13;5029835;28;20083;-66
2022/03/07 07:46:05;;;;;;;7.68;7.28;;;;;;;1.91;77.60;100795.50;5020928;28;20030;-66
2022/03/07 07:48:31;;;;;;;8.93;8.32;;;;;;;2.01;76.95;100802.66;5021169;28;20544;-67
2022/03/07 07:50:56;;;;;;;8.55;8.05;;;;;;;2.03;77.62;100795.53;5029847;28;20479;-65
2022/03/07 07:53:22;;;;;;;8.63;8.13;;;;;;;2.25;76.22;100802.63;5030910;28;20667;-67
2022/03/07 07:55:47;;;;;;;9.05;8.45;;;;;;;2.24;76.71;100795.72;5029298;28;20030;-67
2022/03/07 07:58:13;;;;;;;7.72;7.32;;;;;;;2.22;76.41;100799.31;5018525;28;20037;-66
2022/03/07 08:00:39;;;;;;;7.50;7.10;;;;;;;1.86;76.59;100789.75;5029669;28;20034;-67
2022/03/07 08:03:04;;;;;;;7.90;7.50;;;;;;;1.89;77.52;100794.75;5030024;28;20038;-66
2022/03/07 08:05:30;;;;;;;7.07;6.78;;;;;;;1.80;78.11;100787.59;5028253;28;20036;-66
2022/03/07 08:07:55;;;;;;;8.55;8.05;;;;;;;2.01;76.72;100789.59;5030427;28;20036;-66
2022/03/07 08:10:21;;;;;;;8.68;8.18;;;;;;;2.08;75.95;100793.41;5030282;28;20041;-65
2022/03/07 08:12:47;;;;;;;9.07;8.50;;;;;;;2.34;76.77;100791.47;5013717;28;20112;-67
2022/03/07 08:15:12;;;;;;;8.30;7.80;;;;;;;2.29;73.67;100783.13;5028072;28;20841;-66
2022/03/07 08:17:51;;;;;;;9.07;8.48;;;;;;;2.19;72.91;100768.09;5027588;28;20026;-66
2022/03/07 08:20:19;;;;;;;8.30;7.80;;;;;;;2.40;70.29;100789.22;5015156;28;20036;-65
2022/03/07 08:22:44;;;;;;;8.13;7.63;;;;;;;2.30;68.26;100783.03;5014319;28;20509;-67
2022/03/07 08:25:10;;;;;;;7.90;7.50;;;;;;;2.39;68.25;100786.72;5026578;28;20018;-67
2022/03/07 08:27:37;;;;;;;8.13;7.63;;;;;;;2.42;68.26;100773.38;5018322;28;20034;-66
2022/03/07 08:30:07;;;;;;;9.95;9.25;;;;;;;2.49;67.40;100764.94;5026393;28;20396;-67
2022/03/07 08:32:33;;;;;;;8.32;7.82;;;;;;;2.49;68.25;100767.56;5023255;28;20034;-66
2022/03/07 08:34:59;;;;;;;7.93;7.50;;;;;;;2.73;67.56;100764.03;5027538;28;20041;-68
2022/03/07 08:37:24;;;;;;;7.95;7.55;;;;;;;2.80;66.11;100767.03;5032249;28;20041;-66
2022/03/07 08:39:50;;;;;;;7.78;7.35;;;;;;;2.93;64.71;100758.06;5034502;28;20056;-65
2022/03/07 08:42:15;;;;;;;8.63;8.13;;;;;;;2.96;64.04;100759.63;5033905;28;20086;-67
2022/03/07 08:44:41;;;;;;;7.93;7.53;;;;;;;3.19;64.10;100761.28;5032653;28;20025;-67
2022/03/07 08:47:06;;;;;;;7.40;7.00;;;;;;;3.33;62.42;100768.88;5034037;28;20480;-66
2022/03/07 08:49:32;;;;;;;7.45;7.05;;;;;;;3.59;62.03;100753.66;5033061;28;20080;-67
2022/03/07 08:51:57;;;;;;;7.85;7.45;;;;;;;3.77;61.67;100764.47;5032837;28;20034;-67
2022/03/07 08:54:23;;;;;;;7.78;7.38;;;;;;;3.82;61.73;100762.31;5032920;28;20029;-68
2022/03/07 08:56:48;;;;;;;8.00;7.57;;;;;;;3.97;61.60;100762.00;5039740;28;20100;-66
2022/03/07 08:59:13;;;;;;;8.32;7.82;;;;;;;3.61;62.57;100758.81;5033899;28;20029;-66
2022/03/07 09:01:39;;;;;;;8.18;7.70;;;;;;;3.88;61.78;100759.16;5015080;28;20403;-67
2022/03/07 09:04:04;;;;;;;8.68;8.18;;;;;;;3.77;61.91;100761.00;5020875;28;20398;-67
2022/03/07 09:06:30;;;;;;;7.63;7.22;;;;;;;4.23;60.00;100754.59;5016768;28;20026;-66
2022/03/07 09:08:56;;;;;;;7.45;7.07;;;;;;;4.67;59.33;100756.91;5017231;28;20103;-66
2022/03/07 09:11:21;;;;;;;7.82;7.43;;;;;;;4.71;58.83;100754.88;5017203;28;20116;-67
2022/03/07 09:13:47;;;;;;;8.70;8.20;;;;;;;4.97;57.05;100755.25;5017241;28;20026;-67
2022/03/07 09:16:14;;;;;;;7.60;7.20;;;;;;;5.42;57.05;100750.38;5026956;28;20032;-67
2022/03/07 09:18:40;;;;;;;7.40;7.00;;;;;;;5.70;55.22;100748.75;5032449;28;20117;-66
2022/03/07 09:21:06;;;;;;;7.38;6.97;;;;;;;5.76;54.82;100748.19;5032444;28;20108;-68
2022/03/07 09:23:37;;;;;;;7.68;7.28;;;;;;;6.08;54.23;100739.22;5032438;28;20117;-66
2022/03/07 09:26:04;;;;;;;8.18;7.70;;;;;;;5.46;54.83;100743.06;5033203;28;20021;-67
2022/03/07 09:28:29;;;;;;;8.77;8.27;;;;;;;5.53;54.06;100744.16;5032997;28;20053;-67
2022/03/07 09:30:55;;;;;;;8.07;7.68;;;;;;;5.73;53.61;100737.97;5032056;28;20034;-67
2022/03/07 09:33:20;;;;;;;7.57;7.18;;;;;;;5.89;53.85;100729.50;5030861;28;20380;-67
2022/03/07 09:35:46;;;;;;;7.90;7.50;;;;;;;5.51;52.98;100725.91;5032348;28;20040;-66
2022/03/07 09:38:11;;;;;;;8.30;7.85;;;;;;;5.85;52.24;100735.19;5022735;28;20026;-67
2022/03/07 09:40:38;;;;;;;7.95;7.55;;;;;;;5.80;51.05;100727.69;5033472;28;20040;-67
2022/03/07 09:43:04;;;;;;;8.25;7.78;;;;;;;5.33;52.52;100721.44;5030778;28;20029;-68
2022/03/07 09:45:29;;;;;;;7.88;7.47;;;;;;;6.05;51.12;100727.16;5032398;28;20025;-66
2022/03/07 09:47:57;;;;;;;8.32;7.85;;;;;;;6.07;50.58;100727.84;5032710;28;20040;-65
2022/03/07 09:50:23;;;;;;;7.90;7.50;;;;;;;5.44;50.10;100729.22;5024772;28;20421;-66
2022/03/07 09:52:48;;;;;;;8.52;8.02;;;;;;;6.25;48.91;100724.50;5021767;28;20103;-67
2022/03/07 09:55:16;;;;;;;8.60;8.10;;;;;;;6.30;47.86;100717.81;5019021;28;20488;-66
2022/03/07 09:57:43;;;;;;;8.45;7.95;;;;;;;6.40;48.43;100717.81;5028777;28;20030;-66
2022/03/07 10:00:09;;;;;;;8.07;7.68;;;;;;;5.98;48.73;100722.59;5019233;28;20038;-67
2022/03/07 10:02:35;;;;;;;8.23;7.82;;;;;;;6.33;48.96;100722.00;5027886;28;20026;-66
2022/03/07 10:05:01;;;;;;;8.90;8.40;;;;;;;6.15;49.33;100719.22;5021432;28;20092;-67
2022/03/07 10:07:27;;;;;;;8.68;8.18;;;;;;;6.55;48.42;100707.63;5026607;28;20060;-66
2022/03/07 10:10:07;;;;;;;7.78;7.38;;;;;;;6.75;47.01;100713.66;5031398;28;20563;-67
2022/03/07 10:12:32;;;;;;;7.78;7.38;;;;;;;6.74;46.63;100698.81;5032626;28;20033;-67
2022/03/07 10:15:09;;;;;;;7.55;7.15;;;;;;;6.80;45.96;100695.59;5032681;28;20508;-68
2022/03/07 10:17:35;;;;;;;8.40;7.90;;;;;;;7.30;45.79;100703.91;5029981;28;20064;-66
2022/03/07 10:20:04;;;;;;;7.57;7.18;;;;;;;6.93;46.13;100694.28;5023266;28;20049;-69
2022/03/07 10:22:30;;;;;;;9.00;8.50;;;;;;;6.76;45.07;100694.25;5022376;28;20032;-67
2022/03/07 10:25:09;;;;;;;7.20;6.90;;;;;;;6.35;46.29;100683.16;5031346;28;20021;-69
2022/03/07 10:27:37;;;;;;;8.52;8.02;;;;;;;6.74;44.89;100680.34;5031215;28;20036;-67
2022/03/07 10:30:08;;;;;;;8.82;8.32;;;;;;;7.18;44.92;100684.00;5030890;28;20058;-67
2022/03/07 10:32:34;;;;;;;7.85;7.45;;;;;;;6.97;46.10;100676.34;5032267;28;20502;-66
2022/03/07 10:34:59;;;;;;;8.23;7.82;;;;;;;7.10;44.87;100676.00;5027379;28;20058;-66
2022/03/07 10:37:38;;;;;;;7.97;7.57;;;;;;;7.10;45.09;100668.06;5018011;28;20030;-67
2022/03/07 10:40:16;;;;;;;8.77;8.27;;;;;;;7.11;45.04;100672.38;5020347;28;20113;-67
2022/03/07 10:42:47;;;;;;;7.55;7.15;;;;;;;7.10;45.04;100670.72;5031863;28;20030;-66
2022/03/07 10:45:13;;;;;;;7.60;7.20;;;;;;;6.79;45.51;100663.13;5025279;28;20790;-66
2022/03/07 10:47:39;;;;;;;8.95;8.45;;;;;;;6.57;45.87;100668.78;5015617;28;20026;-68
2022/03/07 10:50:06;;;;;;;7.88;7.47;;;;;;;6.13;45.98;100644.81;5025197;28;20072;-67
2022/03/07 10:52:39;;;;;;;8.95;8.45;;;;;;;6.30;44.97;100659.84;5030183;28;20029;-67
2022/03/07 10:55:07;;;;;;;7.57;7.18;;;;;;;5.72;46.08;100659.94;5014142;28;20044;-67
2022/03/07 10:57:38;;;;;;;9.20;8.70;;;;;;;5.86;47.13;100657.84;5039788;28;20030;-66
2022/03/07 11:00:17;;;;;;;8.25;7.85;;;;;;;5.60;47.04;100650.56;5013942;28;20155;-67
2022/03/07 11:02:44;;;;;;;9.98;9.38;;;;;;;5.68;47.64;100647.22;5022773;28;20329;-67
2022/03/07 11:05:11;;;;;;;8.18;7.78;;;;;;;5.43;47.52;100633.63;5028161;28;20025;-67
2022/03/07 11:07:38;;;;;;;9.23;8.73;;;;;;;5.82;47.38;100642.34;5030739;28;20029;-68
2022/03/07 11:10:09;;;;;;;8.15;7.75;;;;;;;6.07;46.22;100638.31;5013746;28;20037;-66
2022/03/07 11:12:35;;;;;;;8.27;7.82;;;;;;;6.18;46.98;100631.22;5030685;28;20041;-67
2022/03/07 11:15:08;;;;;;;8.30;7.85;;;;;;;6.08;47.10;100628.59;5030282;28;20052;-67
2022/03/07 11:17:38;;;;;;;8.15;7.75;;;;;;;5.47;47.90;100618.44;5031140;28;20061;-68
2022/03/07 11:20:04;;;;;;;8.48;8.00;;;;;;;5.42;48.17;100625.88;5030209;28;20041;-67
2022/03/07 11:22:31;;;;;;;9.48;8.88;;;;;;;4.99;49.06;100620.06;5031474;28;20036;-67
2022/03/07 11:24:57;;;;;;;8.35;7.93;;;;;;;4.87;49.89;100618.53;5023194;28;20018;-67
2022/03/07 11:27:23;;;;;;;8.98;8.48;;;;;;;4.92;50.00;100618.97;5017727;28;20040;-66